createdAt,value
2022-10-03T00:01:45.980Z,1.20
2022-10-03T00:05:18.946Z,1.20
2022-10-03T00:08:42.737Z,1.00
2022-10-03T00:11:53.570Z,1.13
2022-10-03T00:15:09.356Z,1.30
2022-10-03T00:18:37.287Z,1.33
2022-10-03T00:22:03.214Z,1.10
2022-10-03T00:25:39.314Z,1.40
2022-10-03T00:28:51.785Z,1.40
2022-10-03T00:32:06.680Z,1.20
2022-10-03T00:35:36.201Z,1.20
2022-10-03T00:39:14.912Z,1.33
2022-10-03T00:42:25.878Z,1.40
2022-10-03T00:45:58.988Z,1.40
2022-10-03T00:49:13.490Z,1.50
2022-10-03T00:52:35.314Z,1.73
2022-10-03T00:56:01.561Z,1.20
2022-10-03T00:59:13.257Z,1.40
2022-10-03T01:02:34.526Z,1.47
2022-10-03T01:06:15.458Z,1.50
2022-10-03T01:09:29.632Z,1.70
2022-10-03T01:12:57.737Z,1.80
2022-10-03T01:16:22.009Z,1.55
2022-10-03T01:19:52.708Z,1.70
2022-10-03T01:23:33.233Z,1.40
2022-10-03T01:26:56.311Z,1.70
2022-10-03T01:30:24.216Z,1.60
2022-10-03T01:33:31.485Z,1.50
2022-10-03T01:36:45.390Z,1.73
2022-10-03T01:39:53.767Z,2.20
2022-10-03T01:43:03.566Z,1.60
2022-10-03T01:46:13.034Z,1.70
2022-10-03T01:49:22.146Z,1.80
2022-10-03T01:52:49.663Z,1.63
2022-10-03T01:56:39.100Z,1.50
2022-10-03T01:59:44.062Z,1.80
2022-10-03T02:02:49.024Z,1.77
2022-10-03T02:06:09.942Z,2.00
2022-10-03T02:09:33.922Z,1.90
2022-10-03T02:12:50.497Z,2.00
2022-10-03T02:16:08.087Z,1.88
2022-10-03T02:19:25.355Z,1.90
2022-10-03T02:22:33.358Z,1.90
2022-10-03T02:26:09.102Z,2.43
2022-10-03T02:29:31.877Z,2.00
2022-10-03T02:32:43.340Z,2.30
2022-10-03T02:35:55.960Z,2.85
2022-10-03T02:39:27.900Z,2.20
2022-10-03T02:42:55.243Z,2.20
2022-10-03T02:46:08.854Z,2.50
2022-10-03T02:49:29.841Z,2.20
2022-10-03T02:52:36.780Z,2.40
2022-10-03T02:56:19.336Z,2.80
2022-10-03T02:59:42.637Z,2.83
2022-10-03T03:03:25.798Z,3.03
2022-10-03T03:06:34.188Z,3.40
2022-10-03T03:10:02.288Z,3.17
2022-10-03T03:13:10.185Z,2.95
2022-10-03T03:16:27.562Z,3.70
2022-10-03T03:19:38.664Z,3.00
2022-10-03T03:23:18.286Z,3.22
2022-10-03T03:26:35.620Z,3.50
2022-10-03T03:30:05.180Z,3.30
2022-10-03T03:33:11.166Z,3.07
2022-10-03T03:36:30.864Z,3.27
2022-10-03T03:39:33.035Z,3.58
2022-10-03T03:42:38.257Z,3.05
2022-10-03T03:45:50.544Z,3.13
2022-10-03T03:49:02.904Z,3.47
2022-10-03T03:52:17.371Z,3.23
2022-10-03T03:55:27.101Z,3.25
2022-10-03T03:58:50.138Z,3.00
2022-10-03T04:02:18.189Z,3.10
2022-10-03T04:05:39.237Z,3.30
2022-10-03T04:09:05.975Z,3.60
2022-10-03T04:12:32.518Z,4.00
2022-10-03T04:15:59.733Z,4.03
2022-10-03T04:19:11.476Z,3.85
2022-10-03T04:22:22.826Z,3.97
2022-10-03T04:25:40.078Z,4.00
2022-10-03T04:28:48.024Z,3.65
2022-10-03T04:32:11.438Z,4.20
2022-10-03T04:35:38.050Z,3.70
2022-10-03T04:38:44.441Z,3.63
2022-10-03T04:42:02.000Z,4.60
2022-10-03T04:45:13.409Z,4.10
2022-10-03T04:48:45.288Z,3.63
2022-10-03T04:52:17.971Z,4.05
2022-10-03T04:55:26.904Z,3.80
2022-10-03T04:58:53.893Z,3.43
2022-10-03T05:02:03.334Z,3.67
2022-10-03T05:05:19.754Z,4.07
2022-10-03T05:08:42.285Z,3.90
2022-10-03T05:11:59.871Z,3.90
2022-10-03T05:15:11.717Z,4.03
2022-10-03T05:18:15.190Z,3.63
2022-10-03T05:21:20.261Z,3.65
2022-10-03T05:24:45.234Z,3.28
2022-10-03T05:28:26.869Z,3.63
2022-10-03T05:31:50.580Z,3.47
2022-10-03T05:35:04.533Z,3.50
2022-10-03T05:38:19.229Z,3.38
2022-10-03T05:41:27.020Z,3.70
2022-10-03T05:44:43.888Z,3.43
2022-10-03T05:47:51.219Z,2.80
2022-10-03T05:51:13.322Z,3.15
2022-10-03T05:54:46.124Z,3.33
2022-10-03T05:58:07.766Z,2.90
2022-10-03T06:01:51.151Z,2.83
2022-10-03T06:05:34.576Z,2.73
2022-10-03T06:08:41.983Z,2.47
2022-10-03T06:11:56.303Z,2.63
2022-10-03T06:15:12.361Z,3.00
2022-10-03T06:18:35.560Z,2.37
2022-10-03T06:22:14.920Z,2.13
2022-10-03T06:25:46.029Z,2.35
2022-10-03T06:28:57.899Z,2.13
2022-10-03T06:32:25.931Z,2.13
2022-10-03T06:35:49.343Z,2.20
2022-10-03T06:38:52.146Z,2.00
2022-10-03T06:42:00.990Z,1.85
2022-10-03T06:45:31.674Z,1.75
2022-10-03T06:48:42.708Z,1.90
2022-10-03T06:52:18.701Z,1.83
2022-10-03T06:55:31.061Z,1.40
2022-10-03T06:59:10.654Z,2.05
2022-10-03T07:02:37.330Z,1.58
2022-10-03T07:05:58.218Z,1.50
2022-10-03T07:09:19.504Z,1.30
2022-10-03T07:12:34.012Z,1.60
2022-10-03T07:16:25.453Z,1.40
2022-10-03T07:19:43.229Z,1.30
2022-10-03T07:23:12.408Z,1.52
2022-10-03T07:27:03.202Z,1.67
2022-10-03T07:30:14.872Z,1.60
2022-10-03T07:33:38.038Z,1.67
2022-10-03T07:37:21.683Z,1.40
2022-10-03T07:40:45.163Z,1.40
2022-10-03T07:44:05.248Z,1.23
2022-10-03T07:47:29.246Z,1.87
2022-10-03T07:50:57.056Z,1.70
2022-10-03T07:54:11.445Z,1.25
2022-10-03T07:58:03.990Z,1.50
2022-10-03T08:01:16.504Z,1.40
2022-10-03T08:04:26.098Z,1.87
2022-10-03T08:08:05.984Z,1.45
2022-10-03T08:11:22.953Z,1.30
2022-10-03T08:15:21.567Z,1.20
2022-10-03T08:18:32.769Z,1.33
2022-10-03T08:21:49.866Z,1.53
2022-10-03T08:25:29.472Z,1.08
2022-10-03T08:28:38.521Z,1.20
2022-10-03T08:31:52.704Z,1.52
2022-10-03T08:35:12.844Z,1.40
2022-10-03T08:38:32.060Z,1.40
2022-10-03T08:41:53.583Z,1.48
2022-10-03T08:45:32.261Z,1.20
2022-10-03T08:49:52.028Z,1.40
2022-10-03T08:53:00.751Z,1.20
2022-10-03T08:56:08.762Z,1.37
2022-10-03T08:59:39.691Z,1.15
2022-10-03T09:03:32.237Z,1.00
2022-10-03T09:07:05.008Z,1.13
2022-10-03T09:10:42.600Z,1.13
2022-10-03T09:14:00.007Z,1.33
2022-10-03T09:17:28.211Z,1.30
2022-10-03T09:20:51.575Z,0.93
2022-10-03T09:24:07.020Z,1.45
2022-10-03T09:27:31.689Z,1.10
2022-10-03T09:30:52.880Z,1.40
2022-10-03T09:34:04.388Z,1.17
2022-10-03T09:37:21.390Z,1.20
2022-10-03T09:40:39.217Z,1.42
2022-10-03T09:44:15.143Z,1.53
2022-10-03T09:47:40.243Z,1.10
2022-10-03T09:51:10.027Z,1.33
2022-10-03T09:55:07.526Z,1.35
2022-10-03T09:58:32.883Z,1.40
2022-10-03T10:01:51.043Z,1.20
2022-10-03T10:05:30.929Z,1.27
2022-10-03T10:09:16.519Z,1.13
2022-10-03T10:12:37.747Z,1.08
2022-10-03T10:16:11.489Z,1.10
2022-10-03T10:19:16.893Z,1.10
2022-10-03T10:22:43.852Z,1.20
2022-10-03T10:26:01.884Z,1.15
2022-10-03T10:29:09.286Z,0.90
2022-10-03T10:32:37.681Z,0.98
2022-10-03T10:36:15.689Z,0.90
2022-10-03T10:39:40.383Z,1.10
2022-10-03T10:42:52.179Z,0.90
2022-10-03T10:46:16.332Z,1.08
2022-10-03T10:49:38.604Z,0.90
2022-10-03T10:52:43.963Z,0.90
2022-10-03T10:56:33.748Z,1.00
2022-10-03T10:59:39.298Z,0.80
2022-10-03T11:03:15.879Z,0.98
2022-10-03T11:06:42.650Z,0.90
2022-10-03T11:10:11.115Z,1.00
2022-10-03T11:13:35.887Z,0.90
2022-10-03T11:16:56.673Z,0.90
2022-10-03T11:20:17.274Z,0.70
2022-10-03T11:23:29.294Z,0.90
2022-10-03T11:26:50.227Z,0.80
2022-10-03T11:30:11.000Z,0.80
2022-10-03T11:34:07.251Z,1.25
2022-10-03T11:37:28.651Z,1.08
2022-10-03T11:40:55.095Z,1.00
2022-10-03T11:44:16.242Z,0.90
2022-10-03T11:47:28.009Z,1.10
2022-10-03T11:50:33.764Z,0.95
2022-10-03T11:53:46.381Z,1.52
2022-10-03T11:57:07.190Z,1.40
2022-10-03T12:00:13.559Z,1.00
2022-10-03T12:03:31.166Z,1.20
2022-10-03T12:07:17.503Z,1.00
2022-10-03T12:10:58.175Z,0.90
2022-10-03T12:14:11.549Z,0.90
2022-10-03T12:17:16.245Z,1.10
2022-10-03T12:20:24.562Z,1.00
2022-10-03T12:23:33.490Z,0.95
2022-10-03T12:26:46.201Z,0.88
2022-10-03T12:29:59.016Z,0.80
2022-10-03T12:33:14.717Z,0.77
2022-10-03T12:36:24.676Z,0.70
2022-10-03T12:39:45.688Z,1.00
2022-10-03T12:43:27.068Z,0.70
2022-10-03T12:46:51.366Z,0.70
2022-10-03T12:50:00.399Z,0.70
2022-10-03T12:53:18.443Z,0.90
2022-10-03T12:56:42.732Z,0.70
2022-10-03T13:00:03.642Z,0.60
2022-10-03T13:03:22.200Z,0.73
2022-10-03T13:07:02.775Z,0.60
2022-10-03T13:10:42.833Z,0.70
2022-10-03T13:14:20.011Z,0.70
2022-10-03T13:17:30.697Z,0.90
2022-10-03T13:20:37.371Z,0.50
2022-10-03T13:23:47.636Z,0.70
2022-10-03T13:27:33.223Z,0.90
2022-10-03T13:31:04.220Z,0.60
2022-10-03T13:34:17.096Z,0.80
2022-10-03T13:38:08.110Z,0.88
2022-10-03T13:41:30.559Z,0.67
2022-10-03T13:44:33.442Z,1.00
2022-10-03T13:47:57.732Z,0.77
2022-10-03T13:51:11.579Z,0.85
2022-10-03T13:54:21.634Z,0.80
2022-10-03T13:57:29.034Z,0.80
2022-10-03T14:00:43.389Z,0.70
2022-10-03T14:03:55.596Z,0.70
2022-10-03T14:07:08.827Z,0.70
2022-10-03T14:10:22.263Z,0.90
2022-10-03T14:13:46.448Z,0.80
2022-10-03T14:17:01.111Z,0.67
2022-10-03T14:20:30.123Z,0.80
2022-10-03T14:23:38.943Z,0.68
2022-10-03T14:26:59.141Z,0.70
2022-10-03T14:30:10.313Z,0.60
2022-10-03T14:33:30.926Z,0.80
2022-10-03T14:37:02.281Z,0.60
2022-10-03T14:40:41.007Z,0.60
2022-10-03T14:43:55.769Z,0.70
2022-10-03T14:47:01.938Z,0.90
2022-10-03T14:50:06.119Z,0.50
2022-10-03T14:53:20.826Z,0.68
2022-10-03T14:56:24.739Z,0.60
2022-10-03T14:59:33.870Z,0.60
2022-10-03T15:02:38.092Z,0.60
2022-10-03T15:05:57.262Z,0.53
2022-10-03T15:09:02.551Z,0.88
2022-10-03T15:12:24.222Z,0.80
2022-10-03T15:15:32.268Z,0.50
2022-10-03T15:18:34.680Z,0.50
2022-10-03T15:21:39.317Z,0.70
2022-10-03T15:24:42.226Z,0.50
2022-10-03T15:27:48.872Z,0.70
2022-10-03T15:30:52.785Z,0.70
2022-10-03T15:33:56.181Z,0.67
2022-10-03T15:37:04.341Z,0.70
2022-10-03T15:40:12.482Z,0.80
2022-10-03T15:43:34.471Z,0.80
2022-10-03T15:46:43.462Z,0.68
2022-10-03T15:50:04.593Z,0.80
2022-10-03T15:53:31.591Z,0.90
2022-10-03T15:56:40.231Z,0.70
2022-10-03T15:59:45.372Z,0.82
2022-10-03T16:02:53.581Z,1.00
2022-10-03T16:06:35.647Z,1.00
2022-10-03T16:09:56.030Z,1.00
2022-10-03T16:13:20.700Z,0.85
2022-10-03T16:16:30.057Z,0.95
2022-10-03T16:19:39.473Z,0.90
2022-10-03T16:22:45.923Z,0.97
2022-10-03T16:25:50.763Z,0.80
2022-10-03T16:29:12.284Z,1.02
2022-10-03T16:32:20.501Z,0.90
2022-10-03T16:35:30.582Z,0.80
2022-10-03T16:38:35.926Z,1.03
2022-10-03T16:41:42.696Z,0.80
2022-10-03T16:44:48.124Z,1.00
2022-10-03T16:48:11.563Z,0.88
2022-10-03T16:51:21.126Z,0.70
2022-10-03T16:54:24.114Z,0.70
2022-10-03T16:57:33.713Z,0.67
2022-10-03T17:01:21.957Z,0.60
2022-10-03T17:04:41.774Z,0.60
2022-10-03T17:07:46.872Z,0.70
2022-10-03T17:10:58.098Z,0.70
2022-10-03T17:14:03.592Z,1.03
2022-10-03T17:17:24.422Z,0.68
2022-10-03T17:20:48.390Z,1.02
2022-10-03T17:24:00.726Z,0.73
2022-10-03T17:27:10.588Z,0.80
2022-10-03T17:30:40.784Z,0.67
2022-10-03T17:33:53.529Z,0.70
2022-10-03T17:37:01.628Z,0.75
2022-10-03T17:40:21.516Z,0.70
2022-10-03T17:43:36.617Z,0.60
2022-10-03T17:46:43.451Z,0.70
2022-10-03T17:50:02.273Z,0.60
2022-10-03T17:53:05.994Z,0.30
2022-10-03T17:56:13.391Z,0.50
2022-10-03T17:59:23.141Z,0.67
2022-10-03T18:02:57.445Z,0.60
2022-10-03T18:06:22.819Z,0.98
2022-10-03T18:09:43.565Z,0.85
2022-10-03T18:12:48.231Z,0.70
2022-10-03T18:16:22.625Z,0.80
2022-10-03T18:19:57.242Z,0.87
2022-10-03T18:23:04.235Z,0.73
2022-10-03T18:26:20.004Z,2.85
2022-10-03T18:29:36.251Z,1.42
2022-10-03T18:32:39.932Z,0.80
2022-10-03T18:35:44.663Z,1.10
2022-10-03T18:38:47.948Z,0.70
2022-10-03T18:41:53.365Z,0.82
2022-10-03T18:44:57.380Z,0.52
2022-10-03T18:48:40.963Z,2.40
2022-10-03T18:51:45.996Z,1.00
2022-10-03T18:55:00.684Z,0.70
2022-10-03T18:58:25.604Z,0.77
2022-10-03T19:01:31.986Z,0.98
2022-10-03T19:04:44.521Z,0.80
2022-10-03T19:07:55.983Z,0.83
2022-10-03T19:11:00.352Z,0.80
2022-10-03T19:14:12.701Z,1.00
2022-10-03T19:17:17.854Z,0.80
2022-10-03T19:20:42.218Z,1.30
2022-10-03T19:24:02.507Z,0.87
2022-10-03T19:27:15.799Z,1.05
2022-10-03T19:30:21.136Z,1.10
2022-10-03T19:33:25.398Z,0.90
2022-10-03T19:36:30.686Z,1.10
2022-10-03T19:39:33.200Z,1.10
2022-10-03T19:42:50.001Z,1.30
2022-10-03T19:46:22.411Z,1.13
2022-10-03T19:49:51.626Z,0.95
2022-10-03T19:52:54.045Z,0.97
2022-10-03T19:55:56.653Z,1.00
2022-10-03T19:59:15.949Z,0.90
2022-10-03T20:02:23.491Z,1.13
2022-10-03T20:05:31.975Z,1.00
2022-10-03T20:08:56.131Z,1.40
2022-10-03T20:12:00.709Z,0.80
2022-10-03T20:15:15.197Z,1.00
2022-10-03T20:18:23.839Z,1.13
2022-10-03T20:21:27.192Z,0.80
2022-10-03T20:24:38.161Z,1.10
2022-10-03T20:27:43.509Z,0.87
2022-10-03T20:30:53.142Z,1.05
2022-10-03T20:33:57.705Z,0.93
2022-10-03T20:37:18.554Z,1.05
2022-10-03T20:40:30.913Z,1.10
2022-10-03T20:43:42.038Z,1.20
2022-10-03T20:46:52.268Z,1.00
2022-10-03T20:49:58.383Z,1.00
2022-10-03T20:53:02.761Z,1.25
2022-10-03T20:56:08.358Z,1.10
2022-10-03T20:59:11.376Z,1.00
2022-10-03T21:02:31.606Z,1.20
2022-10-03T21:05:39.731Z,1.08
2022-10-03T21:08:42.019Z,1.38
2022-10-03T21:11:44.640Z,1.00
2022-10-03T21:14:51.459Z,1.10
2022-10-03T21:17:55.435Z,1.25
2022-10-03T21:21:06.944Z,1.15
2022-10-03T21:24:27.168Z,0.98
2022-10-03T21:27:31.931Z,1.20
2022-10-03T21:30:46.248Z,1.23
2022-10-03T21:33:57.086Z,1.20
2022-10-03T21:37:10.814Z,1.10
2022-10-03T21:40:59.345Z,0.82
2022-10-03T21:44:04.825Z,1.00
2022-10-03T21:47:18.109Z,1.03
2022-10-03T21:50:24.965Z,1.10
2022-10-03T21:53:46.385Z,1.30
2022-10-03T21:56:51.374Z,1.10
2022-10-03T22:00:18.507Z,1.40
2022-10-03T22:03:29.906Z,1.43
2022-10-03T22:06:39.563Z,1.40
2022-10-03T22:09:50.359Z,1.00
2022-10-03T22:13:00.353Z,1.02
2022-10-03T22:16:25.651Z,1.50
2022-10-03T22:19:42.140Z,1.10
2022-10-03T22:23:11.639Z,1.30
2022-10-03T22:26:46.329Z,1.30
2022-10-03T22:29:59.252Z,1.30
2022-10-03T22:33:19.324Z,1.37
2022-10-03T22:36:21.848Z,1.90
2022-10-03T22:39:23.970Z,1.20
2022-10-03T22:42:28.140Z,1.00
2022-10-03T22:45:33.169Z,1.20
2022-10-03T22:48:49.682Z,1.03
2022-10-03T22:51:54.073Z,1.30
2022-10-03T22:54:57.152Z,1.50
2022-10-03T22:58:02.137Z,1.40
2022-10-03T23:01:05.327Z,1.20
2022-10-03T23:04:13.888Z,1.30
2022-10-03T23:07:28.308Z,1.33
2022-10-03T23:10:38.954Z,1.20
2022-10-03T23:13:43.761Z,1.08
2022-10-03T23:17:01.156Z,1.02
2022-10-03T23:20:06.035Z,1.23
2022-10-03T23:23:22.760Z,1.47
2022-10-03T23:26:47.393Z,1.17
2022-10-03T23:30:11.441Z,1.20
2022-10-03T23:33:18.696Z,1.50
2022-10-03T23:36:24.385Z,2.60
2022-10-03T23:39:34.298Z,1.30
2022-10-03T23:42:44.609Z,1.30
2022-10-03T23:45:47.772Z,1.17
2022-10-03T23:48:53.864Z,1.45
2022-10-03T23:51:56.769Z,1.50
2022-10-03T23:55:03.384Z,1.43
2022-10-03T23:58:17.541Z,1.70
